»·PEaware :: WJA2903 KOAK-CYVR

WJA2903 :: KOAK-CYVR

FLIGHT INFORMATION

Flight Status: Arrived
Operator:
Westjet Airlines
More flights by this operator :: More flights under this callsign
Pilot: Kyle M. (9350)
Aircraft: Boeing 787-9 Dreamliner
(B789)
More flights by this aircraft type
Origin: KOAK Metro Oakland Intl
United States
Destination: CYVR Vancouver Intl
Canada
More flights between these airports :: More routes between these airports
Route: +HUSSH2 DEDHD RBL BTG PAE GRIZZ6
File this flight plan on PilotEdge
Remarks: RMK / SIMBRIEF
Altitude:
(Current/Filed)
38,000ft
Speed:
(Current/Filed)
486kts
Departed: 30-May-20 10:19 AM
Arrived: 30-May-20 11:54 AM
Distance/Time
Traveled:
689nm/1:35
Distance/Time
To Go:
Arrived

Flight Plot

Page will automatically refresh every two minutes.

Flight plan parsing failed; only flown route is shown


Map Options




Map Legend


Flown Route
Filed Route
Departure Airport
Arrival Airport
Navaid (VOR, NDB)
Fix

Horizontal Profiles

Position Reports

Time Latitude Longitude Heading Altitude Ground
Speed
30-May-20 09:48 37.710145 -122.216712 25 18ft 0kts
30-May-20 09:50 37.710145 -122.216712 25 18ft 0kts
30-May-20 09:51 37.710145 -122.216712 25 18ft 0kts
30-May-20 09:52 37.710145 -122.216712 25 18ft 0kts
30-May-20 09:53 37.710145 -122.216712 25 18ft 0kts
30-May-20 09:54 37.710145 -122.216712 25 18ft 0kts
30-May-20 09:55 37.710145 -122.216712 25 18ft 0kts
30-May-20 09:56 37.710145 -122.216712 25 18ft 0kts
30-May-20 09:57 37.710145 -122.216712 25 18ft 0kts
30-May-20 09:58 37.710145 -122.216712 25 18ft 0kts
30-May-20 09:59 37.710145 -122.216712 25 18ft 0kts
30-May-20 10:00 37.710145 -122.216712 25 18ft 0kts
30-May-20 10:01 37.710145 -122.216712 25 18ft 0kts
30-May-20 10:02 37.710145 -122.216712 25 18ft 0kts
30-May-20 10:03 37.710145 -122.216712 25 18ft 0kts
30-May-20 10:04 37.710144 -122.216712 25 18ft 0kts
30-May-20 10:05 37.710144 -122.216712 25 18ft 0kts
30-May-20 10:05 37.710144 -122.216712 25 18ft 0kts
30-May-20 10:06 37.710144 -122.216712 25 18ft 0kts
30-May-20 10:08 37.710144 -122.216712 25 18ft 0kts
30-May-20 10:08 37.710144 -122.216712 25 18ft 0kts
30-May-20 10:09 37.709898 -122.216860 26 18ft 2kts
30-May-20 10:10 37.709765 -122.217469 128 18ft 0kts
30-May-20 10:11 37.709790 -122.217509 127 18ft 0kts
30-May-20 10:12 37.709790 -122.217509 127 18ft 0kts
30-May-20 10:13 37.709790 -122.217509 127 18ft 0kts
30-May-20 10:14 37.708942 -122.216285 156 18ft 6kts
30-May-20 10:15 37.706855 -122.217809 193 18ft 11kts
30-May-20 10:16 37.704333 -122.214762 130 18ft 12kts
30-May-20 10:17 37.701782 -122.214470 272 18ft 9kts
30-May-20 10:18 37.721663 -122.244224 308 938ft 195kts
30-May-20 10:19 37.743895 -122.312635 284 3880ft 258kts
30-May-20 10:20 37.803264 -122.367465 339 7640ft 289kts
30-May-20 10:21 37.887184 -122.385045 2 10414ft 338kts
30-May-20 10:22 37.982464 -122.354407 30 13393ft 364kts
30-May-20 10:23 38.073611 -122.292860 31 16602ft 375kts
30-May-20 10:24 38.167478 -122.228479 31 18975ft 385kts
30-May-20 10:25 38.264168 -122.161993 31 20934ft 398kts
30-May-20 10:26 38.370866 -122.118795 1 23103ft 419kts
30-May-20 10:27 38.490240 -122.123998 359 25073ft 433kts
30-May-20 10:28 38.613291 -122.131973 358 26877ft 446kts
30-May-20 10:29 38.740267 -122.140643 358 28945ft 458kts
30-May-20 10:30 38.867626 -122.149492 359 31656ft 453kts
30-May-20 10:31 38.993989 -122.158313 359 33924ft 449kts
30-May-20 10:32 39.118352 -122.166958 0 35726ft 450kts
30-May-20 10:33 39.245217 -122.175810 0 37186ft 453kts
30-May-20 10:34 39.373091 -122.184773 0 38030ft 464kts
30-May-20 10:35 39.508285 -122.194273 0 38043ft 501kts
30-May-20 10:36 39.651935 -122.204445 0 38037ft 516kts
30-May-20 10:37 39.796550 -122.214736 0 38040ft 516kts
30-May-20 10:38 39.941129 -122.225056 0 38041ft 517kts
30-May-20 10:39 40.085989 -122.235427 0 38043ft 517kts
30-May-20 10:40 40.231018 -122.243965 1 38032ft 517kts
30-May-20 10:41 40.375989 -122.252340 1 38027ft 516kts
30-May-20 10:42 40.520882 -122.260739 1 38031ft 522kts
30-May-20 10:43 40.667266 -122.269284 1 38029ft 523kts
30-May-20 10:44 40.813757 -122.277868 1 38031ft 523kts
30-May-20 10:45 40.960667 -122.286504 1 38033ft 524kts
30-May-20 10:46 41.104084 -122.294984 1 38034ft 526kts
30-May-20 10:47 41.251554 -122.303729 1 38027ft 528kts
30-May-20 10:48 41.400199 -122.312577 1 37988ft 530kts
30-May-20 10:49 41.550943 -122.321596 1 37966ft 544kts
30-May-20 10:50 41.703302 -122.330774 1 37966ft 544kts
30-May-20 10:51 41.855998 -122.340018 1 37969ft 546kts
30-May-20 10:52 42.008793 -122.349288 1 37947ft 546kts
30-May-20 10:53 42.162374 -122.358670 1 37907ft 547kts
30-May-20 10:54 42.315581 -122.368049 1 37908ft 546kts
30-May-20 10:55 42.468307 -122.377456 0 37910ft 547kts
30-May-20 10:56 42.622019 -122.386976 0 37916ft 547kts
30-May-20 10:57 42.775445 -122.396510 0 37932ft 549kts
30-May-20 10:58 42.928611 -122.406093 0 37935ft 549kts
30-May-20 10:59 43.083004 -122.415805 0 37939ft 551kts
30-May-20 11:00 43.236317 -122.425500 0 37945ft 552kts
30-May-20 11:01 43.391322 -122.435320 359 37944ft 554kts
30-May-20 11:02 43.546624 -122.445250 359 37947ft 554kts
30-May-20 11:03 43.701938 -122.455219 359 37949ft 556kts
30-May-20 11:04 43.857627 -122.465269 359 37943ft 556kts
30-May-20 11:05 44.013407 -122.475355 359 37944ft 557kts
30-May-20 11:06 44.169933 -122.485676 0 37933ft 557kts
30-May-20 11:07 44.326409 -122.495825 0 37935ft 558kts
30-May-20 11:08 44.482496 -122.506076 0 37913ft 558kts
30-May-20 11:09 44.638895 -122.516453 0 37912ft 558kts
30-May-20 11:10 44.795852 -122.526895 359 37914ft 559kts
30-May-20 11:11 44.952247 -122.537332 359 37934ft 560kts
30-May-20 11:12 45.109415 -122.547916 359 37927ft 561kts
30-May-20 11:13 45.266542 -122.558511 359 37915ft 562kts
30-May-20 11:14 45.424085 -122.569285 359 37917ft 563kts
30-May-20 11:15 45.581731 -122.580086 359 37913ft 564kts
30-May-20 11:16 45.740101 -122.589993 4 37902ft 563kts
30-May-20 11:17 45.897362 -122.570602 8 37916ft 561kts
30-May-20 11:18 46.054188 -122.548730 8 37920ft 564kts
30-May-20 11:19 46.193069 -122.529257 8 37914ft 563kts
30-May-20 11:20 46.352002 -122.506789 8 37924ft 565kts
30-May-20 11:21 46.509803 -122.484346 7 37927ft 565kts
30-May-20 11:22 46.667477 -122.461791 8 37930ft 566kts
30-May-20 11:23 46.825361 -122.439045 7 37923ft 566kts
30-May-20 11:24 46.983763 -122.416153 8 37918ft 567kts
30-May-20 11:25 47.140260 -122.393377 8 36449ft 557kts
30-May-20 11:26 47.291650 -122.371220 8 34024ft 531kts
30-May-20 11:27 47.436523 -122.349849 7 31725ft 505kts
30-May-20 11:28 47.573555 -122.329538 7 29719ft 483kts
30-May-20 11:29 47.709755 -122.309229 6 27914ft 487kts
30-May-20 11:30 47.844063 -122.289101 6 25920ft 473kts
30-May-20 11:31 47.973478 -122.294790 348 23880ft 455kts
30-May-20 11:32 48.096701 -122.329156 347 21904ft 439kts
30-May-20 11:33 48.215865 -122.363605 347 19931ft 424kts
30-May-20 11:34 48.329988 -122.396897 347 18071ft 410kts
30-May-20 11:35 48.441388 -122.429572 347 16332ft 399kts
30-May-20 11:36 48.549877 -122.461561 347 14604ft 389kts
30-May-20 11:37 48.653030 -122.492072 347 12908ft 361kts
30-May-20 11:38 48.732835 -122.559537 306 11720ft 312kts
30-May-20 11:40 48.785167 -122.655673 304 10830ft 293kts
30-May-20 11:41 48.836254 -122.753486 305 9984ft 285kts
30-May-20 11:42 48.885080 -122.848675 306 9174ft 279kts
30-May-20 11:43 48.932400 -122.941441 306 8248ft 268kts
30-May-20 11:44 48.990361 -122.997464 356 7069ft 252kts
30-May-20 11:45 49.058486 -122.990310 39 5800ft 243kts
30-May-20 11:46 49.071008 -122.894732 89 4668ft 230kts
30-May-20 11:47 49.078766 -122.802049 34 3804ft 224kts
30-May-20 11:48 49.135859 -122.814386 330 3011ft 213kts
30-May-20 11:49 49.154064 -122.890005 278 3001ft 196kts
30-May-20 11:50 49.163068 -122.971964 279 2547ft 177kts
30-May-20 11:51 49.171010 -123.041381 279 1575ft 150kts
30-May-20 11:52 49.179059 -123.106245 279 715ft 159kts
30-May-20 11:53 49.185954 -123.171402 281 15ft 140kts
30-May-20 11:53 49.189081 -123.195836 307 14ft 26kts

Navigation Log

Ident Type
Flight plan parsing failed, navigation log unavailable